createdAt,value
2022-09-22T00:01:30.190Z,100682.16
2022-09-22T00:04:00.344Z,100672.47
2022-09-22T00:06:32.909Z,100667.13
2022-09-22T00:09:01.814Z,100657.59
2022-09-22T00:11:32.257Z,100652.03
2022-09-22T00:14:14.496Z,100655.53
2022-09-22T00:16:47.173Z,100655.00
2022-09-22T00:19:17.059Z,100667.66
2022-09-22T00:21:45.238Z,100670.44
2022-09-22T00:24:13.191Z,100677.00
2022-09-22T00:26:41.541Z,100679.00
2022-09-22T00:29:09.908Z,100678.97
2022-09-22T00:31:38.912Z,100670.59
2022-09-22T00:34:07.472Z,100681.53
2022-09-22T00:36:35.567Z,100688.59
2022-09-22T00:39:03.585Z,100683.63
2022-09-22T00:41:34.135Z,100699.63
2022-09-22T00:44:26.524Z,100702.25
2022-09-22T00:47:13.283Z,100707.28
2022-09-22T00:49:59.566Z,100721.44
2022-09-22T00:53:00.710Z,100717.63
2022-09-22T00:55:38.307Z,100712.94
2022-09-22T00:58:11.978Z,100709.50
2022-09-22T01:00:39.840Z,100719.94
2022-09-22T01:03:12.209Z,100722.22
2022-09-22T01:05:40.603Z,100719.13
2022-09-22T01:08:08.567Z,100719.75
2022-09-22T01:10:36.424Z,100736.56
2022-09-22T01:13:31.264Z,100726.78
2022-09-22T01:16:02.672Z,100727.06
2022-09-22T01:18:49.526Z,100726.22
2022-09-22T01:21:51.882Z,100733.16
2022-09-22T01:24:45.514Z,100735.69
2022-09-22T01:27:16.564Z,100738.56
2022-09-22T01:30:05.518Z,100738.56
2022-09-22T01:32:46.123Z,100743.59
2022-09-22T01:35:28.396Z,100745.69
2022-09-22T01:38:05.035Z,100741.84
2022-09-22T01:40:48.885Z,100743.22
2022-09-22T01:43:25.665Z,100744.66
2022-09-22T01:45:53.245Z,100749.56
2022-09-22T01:48:23.785Z,100742.44
2022-09-22T01:51:04.643Z,100742.44
2022-09-22T01:53:34.892Z,100739.63
2022-09-22T01:56:05.402Z,100742.47
2022-09-22T01:58:39.253Z,100743.94
2022-09-22T02:01:17.564Z,100745.25
2022-09-22T02:04:22.097Z,100752.22
2022-09-22T02:07:05.671Z,100755.94
2022-09-22T02:09:35.152Z,100753.34
2022-09-22T02:12:03.711Z,100755.38
2022-09-22T02:14:31.595Z,100751.81
2022-09-22T02:17:01.639Z,100756.50
2022-09-22T02:19:33.381Z,100754.50
2022-09-22T02:22:01.135Z,100757.53
2022-09-22T02:24:36.118Z,100749.72
2022-09-22T02:27:27.504Z,100751.56
2022-09-22T02:30:05.733Z,100746.31
2022-09-22T02:32:34.317Z,100750.16
2022-09-22T02:35:02.274Z,100763.38
2022-09-22T02:37:53.738Z,100755.84
2022-09-22T02:40:49.935Z,100759.72
2022-09-22T02:43:24.565Z,100756.31
2022-09-22T02:46:13.615Z,100760.03
2022-09-22T02:48:46.678Z,100754.75
2022-09-22T02:51:14.868Z,100756.59
2022-09-22T02:53:42.415Z,100752.22
2022-09-22T02:56:10.087Z,100755.31
2022-09-22T02:58:37.658Z,100760.97
2022-09-22T03:01:08.963Z,100760.97
2022-09-22T03:03:37.591Z,100755.56
2022-09-22T03:06:05.508Z,100757.75
2022-09-22T03:08:33.511Z,100752.19
2022-09-22T03:11:01.315Z,100750.44
2022-09-22T03:13:29.177Z,100749.19
2022-09-22T03:15:57.119Z,100745.91
2022-09-22T03:18:24.955Z,100739.25
2022-09-22T03:20:52.651Z,100757.75
2022-09-22T03:23:20.345Z,100754.94
2022-09-22T03:25:47.999Z,100752.53
2022-09-22T03:28:15.997Z,100748.09
2022-09-22T03:30:43.692Z,100756.66
2022-09-22T03:33:11.317Z,100757.78
2022-09-22T03:35:39.272Z,100757.63
2022-09-22T03:38:07.030Z,100743.16
2022-09-22T03:40:34.850Z,100748.41
2022-09-22T03:43:02.542Z,100743.72
2022-09-22T03:45:30.239Z,100736.53
2022-09-22T03:47:59.192Z,100732.47
2022-09-22T03:50:28.481Z,100743.97
2022-09-22T03:52:57.721Z,100733.38
2022-09-22T03:55:25.559Z,100738.47
2022-09-22T03:57:53.128Z,100748.75
2022-09-22T04:00:20.670Z,100751.44
2022-09-22T04:02:48.356Z,100751.34
2022-09-22T04:05:16.761Z,100756.91
2022-09-22T04:07:45.558Z,100764.34
2022-09-22T04:10:13.683Z,100763.13
2022-09-22T04:12:41.569Z,100755.00
2022-09-22T04:15:09.746Z,100754.81
2022-09-22T04:17:46.538Z,100757.75
2022-09-22T04:20:14.194Z,100760.84
2022-09-22T04:22:41.849Z,100759.31
2022-09-22T04:25:11.972Z,100762.94
2022-09-22T04:27:40.826Z,100763.84
2022-09-22T04:30:09.152Z,100759.63
2022-09-22T04:32:36.803Z,100756.81
2022-09-22T04:35:04.626Z,100754.66
2022-09-22T04:37:32.441Z,100751.16
2022-09-22T04:40:00.329Z,100738.69
2022-09-22T04:42:28.014Z,100753.91
2022-09-22T04:45:02.070Z,100756.75
2022-09-22T04:47:30.297Z,100772.72
2022-09-22T04:49:58.363Z,100776.44
2022-09-22T04:52:26.887Z,100773.53
2022-09-22T04:54:54.422Z,100782.22
2022-09-22T04:57:22.078Z,100780.16
2022-09-22T04:59:49.729Z,100790.03
2022-09-22T05:02:17.893Z,100782.31
2022-09-22T05:04:45.542Z,100779.47
2022-09-22T05:07:15.131Z,100774.44
2022-09-22T05:09:44.103Z,100781.00
2022-09-22T05:12:11.754Z,100782.84
2022-09-22T05:14:40.126Z,100782.38
2022-09-22T05:17:07.785Z,100775.16
2022-09-22T05:19:35.515Z,100767.31
2022-09-22T05:22:03.146Z,100770.63
2022-09-22T05:24:32.063Z,100758.19
2022-09-22T05:27:00.107Z,100769.06
2022-09-22T05:29:28.143Z,100774.75
2022-09-22T05:31:55.896Z,100767.69
2022-09-22T05:34:23.597Z,100775.97
2022-09-22T05:36:51.477Z,100776.94
2022-09-22T05:39:19.215Z,100764.66
2022-09-22T05:41:49.954Z,100765.63
2022-09-22T05:44:17.674Z,100776.19
2022-09-22T05:46:46.901Z,100768.66
2022-09-22T05:49:14.539Z,100777.81
2022-09-22T05:51:42.261Z,100768.72
2022-09-22T05:54:10.277Z,100764.66
2022-09-22T05:56:39.373Z,100773.69
2022-09-22T05:59:07.113Z,100769.66
2022-09-22T06:01:34.872Z,100771.78
2022-09-22T06:04:02.658Z,100761.63
2022-09-22T06:06:30.665Z,100768.81
2022-09-22T06:08:58.682Z,100773.03
2022-09-22T06:11:26.375Z,100781.94
2022-09-22T06:13:54.754Z,100779.19
2022-09-22T06:16:22.474Z,100785.38
2022-09-22T06:18:50.212Z,100783.91
2022-09-22T06:21:17.839Z,100784.31
2022-09-22T06:23:45.478Z,100776.88
2022-09-22T06:26:13.086Z,100790.66
2022-09-22T06:28:40.721Z,100786.34
2022-09-22T06:31:08.589Z,100789.59
2022-09-22T06:33:36.254Z,100798.91
2022-09-22T06:36:08.182Z,100785.84
2022-09-22T06:38:35.951Z,100787.28
2022-09-22T06:41:04.454Z,100785.50
2022-09-22T06:43:33.142Z,100784.63
2022-09-22T06:46:03.000Z,100787.09
2022-09-22T06:48:32.195Z,100790.03
2022-09-22T06:50:59.921Z,100791.94
2022-09-22T06:53:27.860Z,100796.13
2022-09-22T06:55:55.617Z,100794.50
2022-09-22T06:58:23.404Z,100791.31
2022-09-22T07:00:51.510Z,100789.22
2022-09-22T07:03:24.532Z,100800.25
2022-09-22T07:06:11.134Z,100793.63
2022-09-22T07:08:39.789Z,100799.78
2022-09-22T07:11:10.744Z,100792.28
2022-09-22T07:13:41.029Z,100797.50
2022-09-22T07:16:10.482Z,100801.88
2022-09-22T07:18:41.958Z,100805.34
2022-09-22T07:21:16.776Z,100810.00
2022-09-22T07:23:44.499Z,100817.34
2022-09-22T07:26:13.911Z,100819.88
2022-09-22T07:28:42.856Z,100819.53
2022-09-22T07:31:13.211Z,100821.19
2022-09-22T07:33:43.585Z,100818.81
2022-09-22T07:36:15.334Z,100822.69
2022-09-22T07:38:43.889Z,100825.72
2022-09-22T07:41:13.263Z,100830.91
2022-09-22T07:43:41.398Z,100829.09
2022-09-22T07:46:09.365Z,100815.47
2022-09-22T07:48:45.829Z,100824.81
2022-09-22T07:51:20.872Z,100824.09
2022-09-22T07:54:02.651Z,100827.34
2022-09-22T07:56:31.135Z,100822.88
2022-09-22T07:58:58.894Z,100825.25
2022-09-22T08:01:26.932Z,100826.47
2022-09-22T08:03:57.326Z,100828.38
2022-09-22T08:06:25.201Z,100823.22
2022-09-22T08:08:55.550Z,100820.00
2022-09-22T08:11:25.677Z,100825.53
2022-09-22T08:13:55.949Z,100826.88
2022-09-22T08:16:28.675Z,100826.81
2022-09-22T08:18:58.299Z,100820.75
2022-09-22T08:21:27.439Z,100817.78
2022-09-22T08:23:56.597Z,100809.63
2022-09-22T08:26:24.246Z,100821.25
2022-09-22T08:28:54.459Z,100813.00
2022-09-22T08:31:23.279Z,100810.50
2022-09-22T08:33:54.263Z,100810.03
2022-09-22T08:36:25.416Z,100807.00
2022-09-22T08:38:54.584Z,100796.97
2022-09-22T08:42:09.763Z,100803.94
2022-09-22T08:44:44.849Z,100810.69
2022-09-22T08:47:17.111Z,100801.13
2022-09-22T08:50:05.878Z,100795.06
2022-09-22T08:52:48.618Z,100781.84
2022-09-22T08:55:24.356Z,100783.22
2022-09-22T08:57:57.001Z,100787.41
2022-09-22T09:00:25.811Z,100781.56
2022-09-22T09:03:10.689Z,100784.53
2022-09-22T09:05:48.305Z,100784.50
2022-09-22T09:08:41.615Z,100777.13
2022-09-22T09:11:19.441Z,100781.13
2022-09-22T09:14:00.322Z,100775.63
2022-09-22T09:16:44.598Z,100772.91
2022-09-22T09:19:35.588Z,100774.81
2022-09-22T09:22:25.534Z,100774.63
2022-09-22T09:25:24.345Z,100776.06
2022-09-22T09:28:01.125Z,100778.19
2022-09-22T09:30:30.586Z,100781.16
2022-09-22T09:33:05.738Z,100784.13
2022-09-22T09:35:53.810Z,100783.25
2022-09-22T09:38:29.951Z,100770.16
2022-09-22T09:41:19.091Z,100779.25
2022-09-22T09:43:47.116Z,100794.88
2022-09-22T09:46:24.932Z,100789.81
2022-09-22T09:49:02.867Z,100788.94
2022-09-22T09:51:30.691Z,100798.81
2022-09-22T09:53:58.470Z,100803.38
2022-09-22T09:56:28.269Z,100805.03
2022-09-22T09:59:25.060Z,100802.94
2022-09-22T10:01:54.385Z,100791.31
2022-09-22T10:04:29.347Z,100785.81
2022-09-22T10:10:37.797Z,100805.31
2022-09-22T10:13:18.120Z,100799.13
2022-09-22T10:15:48.574Z,100797.16
2022-09-22T10:18:25.325Z,100788.94
2022-09-22T10:21:18.441Z,100784.59
2022-09-22T10:23:50.511Z,100778.28
2022-09-22T10:26:30.344Z,100779.56
2022-09-22T10:29:12.975Z,100784.22
2022-09-22T10:31:41.836Z,100778.50
2022-09-22T10:34:31.719Z,100782.28
2022-09-22T10:37:00.210Z,100792.88
2022-09-22T10:39:36.818Z,100798.00
2022-09-22T10:42:08.116Z,100789.50
2022-09-22T10:44:39.399Z,100790.81
2022-09-22T10:47:31.271Z,100786.75
2022-09-22T10:50:22.679Z,100788.47
2022-09-22T10:53:31.315Z,100788.44
2022-09-22T10:56:08.513Z,100789.03
2022-09-22T10:59:01.044Z,100787.88
2022-09-22T11:01:31.267Z,100784.97
2022-09-22T11:04:19.833Z,100773.94
2022-09-22T11:07:24.820Z,100758.69
2022-09-22T11:10:39.806Z,100755.38
2022-09-22T11:13:34.528Z,100755.44
2022-09-22T11:16:13.454Z,100760.25
2022-09-22T11:19:06.533Z,100760.72
2022-09-22T11:21:44.742Z,100752.53
2022-09-22T11:24:30.468Z,100758.66
2022-09-22T11:26:59.524Z,100756.19
2022-09-22T11:29:51.422Z,100760.34
2022-09-22T11:32:34.351Z,100761.06
2022-09-22T11:35:20.226Z,100748.38
2022-09-22T11:37:53.942Z,100743.78
2022-09-22T11:40:25.427Z,100749.59
2022-09-22T11:43:02.266Z,100745.59
2022-09-22T11:45:56.993Z,100747.59
2022-09-22T11:48:56.189Z,100760.38
2022-09-22T11:51:35.941Z,100747.50
2022-09-22T11:54:21.711Z,100751.28
2022-09-22T11:56:55.696Z,100742.50
2022-09-22T11:59:55.675Z,100747.16
2022-09-22T12:02:27.361Z,100740.88
2022-09-22T12:05:15.513Z,100748.84
2022-09-22T12:07:55.921Z,100745.63
2022-09-22T12:10:31.445Z,100751.13
2022-09-22T12:12:59.134Z,100755.75
2022-09-22T12:15:35.947Z,100758.34
2022-09-22T12:18:14.062Z,100759.78
2022-09-22T12:21:13.764Z,100759.94
2022-09-22T12:23:45.191Z,100750.25
2022-09-22T12:26:24.792Z,100748.34
2022-09-22T12:28:52.467Z,100758.78
2022-09-22T12:31:21.454Z,100765.91
2022-09-22T12:33:54.209Z,100748.50
2022-09-22T12:36:35.218Z,100755.91
2022-09-22T12:39:25.602Z,100747.63
2022-09-22T12:42:04.250Z,100744.28
2022-09-22T12:44:43.305Z,100742.91
2022-09-22T12:47:16.839Z,100739.91
2022-09-22T12:49:49.505Z,100739.13
2022-09-22T12:52:42.285Z,100737.63
2022-09-22T12:55:28.436Z,100739.78
2022-09-22T12:57:57.722Z,100740.19
2022-09-22T13:00:32.909Z,100745.91
2022-09-22T13:03:01.794Z,100759.56
2022-09-22T13:05:29.406Z,100758.50
2022-09-22T13:07:57.173Z,100760.78
2022-09-22T13:10:25.174Z,100757.00
2022-09-22T13:13:09.427Z,100749.59
2022-09-22T13:15:51.316Z,100753.13
2022-09-22T13:18:41.393Z,100758.75
2022-09-22T13:21:12.070Z,100770.78
2022-09-22T13:23:39.642Z,100765.88
2022-09-22T13:26:17.255Z,100761.41
2022-09-22T13:28:44.873Z,100762.19
2022-09-22T13:31:14.752Z,100762.34
2022-09-22T13:33:43.503Z,100758.13
2022-09-22T13:36:17.891Z,100763.34
2022-09-22T13:38:51.266Z,100767.13
2022-09-22T13:41:21.370Z,100763.53
2022-09-22T13:43:49.245Z,100765.09
2022-09-22T13:46:45.681Z,100768.69
2022-09-22T13:49:37.428Z,100770.06
2022-09-22T13:52:07.469Z,100772.06
2022-09-22T13:54:36.695Z,100762.75
2022-09-22T13:57:06.479Z,100769.56
2022-09-22T13:59:38.685Z,100765.56
2022-09-22T14:02:11.434Z,100770.44
2022-09-22T14:04:50.902Z,100766.00
2022-09-22T14:07:19.616Z,100767.75
2022-09-22T14:09:47.618Z,100763.59
2022-09-22T14:12:15.712Z,100767.13
2022-09-22T14:14:44.201Z,100755.50
2022-09-22T14:17:16.737Z,100759.31
2022-09-22T14:20:04.781Z,100752.59
2022-09-22T14:22:33.488Z,100743.28
2022-09-22T14:25:02.272Z,100748.03
2022-09-22T14:27:49.061Z,100737.88
2022-09-22T14:30:17.944Z,100736.88
2022-09-22T14:32:51.075Z,100743.03
2022-09-22T14:35:33.106Z,100741.41
2022-09-22T14:38:08.252Z,100745.88
2022-09-22T14:40:54.302Z,100736.38
2022-09-22T14:43:24.306Z,100733.63
2022-09-22T14:46:07.424Z,100720.78
2022-09-22T14:48:37.001Z,100725.94
2022-09-22T14:51:20.485Z,100724.53
2022-09-22T14:53:50.828Z,100719.94
2022-09-22T14:56:22.449Z,100715.97
2022-09-22T14:58:52.408Z,100727.66
2022-09-22T15:01:41.598Z,100727.88
2022-09-22T15:04:13.816Z,100724.94
2022-09-22T15:06:41.238Z,100718.00
2022-09-22T15:09:17.027Z,100729.19
2022-09-22T15:11:50.541Z,100722.44
2022-09-22T15:14:41.683Z,100722.22
2022-09-22T15:17:53.149Z,100723.44
2022-09-22T15:20:57.512Z,100717.69
2022-09-22T15:23:26.779Z,100715.97
2022-09-22T15:25:55.483Z,100704.16
2022-09-22T15:28:25.245Z,100716.53
2022-09-22T15:30:53.211Z,100709.97
2022-09-22T15:33:21.330Z,100707.41
2022-09-22T15:36:13.175Z,100714.13
2022-09-22T15:38:41.408Z,100711.09
2022-09-22T15:41:14.324Z,100708.56
2022-09-22T15:43:42.189Z,100705.34
2022-09-22T15:46:37.364Z,100705.50
2022-09-22T15:49:21.117Z,100706.91
2022-09-22T15:51:52.085Z,100703.47
2022-09-22T15:54:22.057Z,100702.38
2022-09-22T15:56:51.506Z,100704.03
2022-09-22T15:59:22.013Z,100697.69
2022-09-22T16:01:50.003Z,100706.03
2022-09-22T16:04:19.006Z,100708.16
2022-09-22T16:06:54.522Z,100716.13
2022-09-22T16:09:25.418Z,100710.00
2022-09-22T16:11:54.009Z,100706.84
2022-09-22T16:14:23.009Z,100707.88
2022-09-22T16:16:51.864Z,100707.63
2022-09-22T16:19:20.432Z,100706.50
2022-09-22T16:21:52.138Z,100703.53
2022-09-22T16:24:22.573Z,100704.31
2022-09-22T16:26:51.983Z,100706.41
2022-09-22T16:29:19.692Z,100717.53
2022-09-22T16:31:47.402Z,100715.44
2022-09-22T16:34:15.264Z,100714.41
2022-09-22T16:36:44.683Z,100716.31
2022-09-22T16:39:12.293Z,100721.78
2022-09-22T16:41:44.282Z,100708.88
2022-09-22T16:44:12.061Z,100710.31
2022-09-22T16:46:39.728Z,100711.59
2022-09-22T16:49:08.260Z,100712.41
2022-09-22T16:51:41.114Z,100716.19
2022-09-22T16:54:13.468Z,100715.72
2022-09-22T16:56:44.067Z,100714.41
2022-09-22T16:59:15.500Z,100721.00
2022-09-22T17:01:43.962Z,100719.94
2022-09-22T17:04:13.177Z,100727.16
2022-09-22T17:06:41.791Z,100730.16
2022-09-22T17:09:10.307Z,100733.75
2022-09-22T17:11:40.374Z,100731.66
2022-09-22T17:14:12.553Z,100726.19
2022-09-22T17:16:44.130Z,100727.69
2022-09-22T17:19:17.292Z,100735.09
2022-09-22T17:21:48.352Z,100729.25
2022-09-22T17:24:16.271Z,100733.47
2022-09-22T17:26:52.249Z,100734.34
2022-09-22T17:29:26.572Z,100740.19
2022-09-22T17:32:04.510Z,100732.84
2022-09-22T17:34:33.068Z,100731.13
2022-09-22T17:37:01.004Z,100740.78
2022-09-22T17:39:29.525Z,100728.16
2022-09-22T17:41:57.142Z,100722.47
2022-09-22T17:44:28.602Z,100736.81
2022-09-22T17:47:16.245Z,100730.88
2022-09-22T17:50:02.344Z,100742.59
2022-09-22T17:53:08.679Z,100729.72
2022-09-22T17:55:36.503Z,100725.88
2022-09-22T17:58:04.783Z,100717.38
2022-09-22T18:00:33.967Z,100724.38
2022-09-22T18:03:02.414Z,100725.88
2022-09-22T18:05:32.288Z,100722.94
2022-09-22T18:08:00.072Z,100724.63
2022-09-22T18:10:32.490Z,100723.59
2022-09-22T18:13:01.095Z,100729.00
2022-09-22T18:15:29.383Z,100719.03
2022-09-22T18:17:58.228Z,100718.78
2022-09-22T18:20:26.351Z,100721.50
2022-09-22T18:22:54.433Z,100721.06
2022-09-22T18:25:25.659Z,100709.66
2022-09-22T18:27:54.682Z,100704.78
2022-09-22T18:30:22.413Z,100709.78
2022-09-22T18:32:51.877Z,100705.16
2022-09-22T18:35:20.293Z,100706.41
2022-09-22T18:37:47.954Z,100703.47
2022-09-22T18:40:17.205Z,100703.28
2022-09-22T18:42:45.434Z,100704.59
2022-09-22T18:45:14.347Z,100705.81
2022-09-22T18:47:43.828Z,100700.19
2022-09-22T18:50:11.877Z,100702.13
2022-09-22T18:52:43.001Z,100699.84
2022-09-22T18:55:11.776Z,100705.75
2022-09-22T18:57:40.233Z,100711.47
2022-09-22T19:00:09.543Z,100717.81
2022-09-22T19:02:37.790Z,100721.19
2022-09-22T19:05:05.899Z,100712.81
2022-09-22T19:07:43.851Z,100723.75
2022-09-22T19:10:18.975Z,100724.63
2022-09-22T19:12:46.624Z,100721.31
2022-09-22T19:15:16.797Z,100729.97
2022-09-22T19:17:46.318Z,100724.31
2022-09-22T19:20:15.793Z,100720.16
2022-09-22T19:22:43.447Z,100725.41
2022-09-22T19:25:11.865Z,100723.31
2022-09-22T19:27:40.121Z,100722.88
2022-09-22T19:30:09.549Z,100722.22
2022-09-22T19:32:37.490Z,100723.44
2022-09-22T19:35:06.122Z,100716.91
2022-09-22T19:37:34.718Z,100721.69
2022-09-22T19:40:02.574Z,100720.88
2022-09-22T19:42:30.396Z,100722.53
2022-09-22T19:44:58.266Z,100718.31
2022-09-22T19:47:25.915Z,100718.13
2022-09-22T19:49:53.528Z,100720.88
2022-09-22T19:52:21.397Z,100717.22
2022-09-22T19:54:51.270Z,100712.81
2022-09-22T19:57:19.191Z,100714.94
2022-09-22T19:59:46.784Z,100715.41
2022-09-22T20:02:14.990Z,100715.84
2022-09-22T20:04:42.588Z,100709.34
2022-09-22T20:07:11.015Z,100717.72
2022-09-22T20:09:39.059Z,100719.63
2022-09-22T20:12:06.715Z,100720.88
2022-09-22T20:14:34.608Z,100716.38
2022-09-22T20:17:07.053Z,100715.91
2022-09-22T20:19:40.497Z,100712.06
2022-09-22T20:22:27.960Z,100710.97
2022-09-22T20:25:01.617Z,100717.00
2022-09-22T20:27:33.921Z,100710.06
2022-09-22T20:30:01.708Z,100703.94
2022-09-22T20:32:31.742Z,100707.69
2022-09-22T20:34:59.468Z,100699.06
2022-09-22T20:37:27.294Z,100696.50
2022-09-22T20:39:56.195Z,100691.03
2022-09-22T20:42:24.283Z,100689.81
2022-09-22T20:44:52.074Z,100695.09
2022-09-22T20:47:21.313Z,100699.50
2022-09-22T20:49:51.751Z,100697.22
2022-09-22T20:52:20.366Z,100693.84
2022-09-22T20:54:48.641Z,100697.88
2022-09-22T20:57:16.994Z,100694.97
2022-09-22T20:59:45.964Z,100698.09
2022-09-22T21:02:14.207Z,100695.94
2022-09-22T21:04:42.173Z,100698.69
2022-09-22T21:07:11.449Z,100698.22
2022-09-22T21:09:57.645Z,100703.28
2022-09-22T21:12:31.082Z,100701.97
2022-09-22T21:14:59.307Z,100694.34
2022-09-22T21:17:32.978Z,100698.41
2022-09-22T21:20:01.037Z,100700.31
2022-09-22T21:22:29.038Z,100692.34
2022-09-22T21:24:57.062Z,100686.69
2022-09-22T21:27:25.250Z,100687.91
2022-09-22T21:29:53.633Z,100680.78
2022-09-22T21:32:21.330Z,100686.25
2022-09-22T21:34:49.335Z,100693.59
2022-09-22T21:37:17.154Z,100684.28
2022-09-22T21:39:44.930Z,100683.63
2022-09-22T21:42:12.679Z,100680.06
2022-09-22T21:44:40.379Z,100674.31
2022-09-22T21:47:08.217Z,100678.28
2022-09-22T21:49:35.930Z,100682.47
2022-09-22T21:52:03.593Z,100675.03
2022-09-22T21:54:31.569Z,100677.56
2022-09-22T21:56:59.177Z,100676.06
2022-09-22T21:59:27.089Z,100679.84
2022-09-22T22:01:54.834Z,100663.88
2022-09-22T22:04:22.644Z,100663.44
2022-09-22T22:06:51.765Z,100664.84
2022-09-22T22:09:20.710Z,100664.31
2022-09-22T22:11:55.677Z,100667.31
2022-09-22T22:14:24.380Z,100668.59
2022-09-22T22:16:53.262Z,100671.78
2022-09-22T22:19:22.224Z,100673.28
2022-09-22T22:21:50.825Z,100672.88
2022-09-22T22:24:30.126Z,100670.34
2022-09-22T22:27:01.720Z,100663.13
2022-09-22T22:29:34.905Z,100659.09
2022-09-22T22:32:04.105Z,100661.84
2022-09-22T22:34:31.848Z,100664.56
2022-09-22T22:36:59.582Z,100663.97
2022-09-22T22:39:27.224Z,100662.47
2022-09-22T22:41:55.476Z,100664.75
2022-09-22T22:44:23.142Z,100668.72
2022-09-22T22:46:51.618Z,100664.09
2022-09-22T22:49:19.780Z,100661.75
2022-09-22T22:51:49.339Z,100663.25
2022-09-22T22:54:16.955Z,100656.03
2022-09-22T22:56:48.909Z,100656.28
2022-09-22T22:59:18.778Z,100657.59
2022-09-22T23:01:46.356Z,100655.25
2022-09-22T23:04:16.876Z,100650.56
2022-09-22T23:06:47.443Z,100645.09
2022-09-22T23:09:16.142Z,100643.16
2022-09-22T23:11:44.149Z,100641.25
2022-09-22T23:14:13.094Z,100644.38
2022-09-22T23:16:46.223Z,100650.50
2022-09-22T23:19:15.531Z,100647.94
2022-09-22T23:21:45.293Z,100640.53
2022-09-22T23:24:15.704Z,100633.75
2022-09-22T23:26:44.145Z,100616.44
2022-09-22T23:29:12.545Z,100611.28
2022-09-22T23:31:40.121Z,100613.72
2022-09-22T23:34:08.143Z,100616.34
2022-09-22T23:36:36.006Z,100627.38
2022-09-22T23:39:04.483Z,100612.50
2022-09-22T23:41:34.257Z,100601.47
2022-09-22T23:44:03.375Z,100595.09
2022-09-22T23:46:31.505Z,100603.13
2022-09-22T23:49:02.606Z,100604.34
2022-09-22T23:51:30.782Z,100604.53
2022-09-22T23:53:58.662Z,100590.59
2022-09-22T23:56:26.365Z,100587.72
2022-09-22T23:58:54.006Z,100587.88
